Watkins Glen, New York
Current Conditions -  °F | °C
As of 1:53 PM on Friday 21 Nov 2014 (Local Time) from KELM Reporting Station
Overcast Overcast  
Wind Chill: 18°   Ceiling: 4500
Heat Index: 29°   Visibility: 10mi
Dew Point: 13°   Wind: 15mph
Humidity: 51%   Direction: 270°W
Pressure: 30.35"   Gusts: 22mph
Location:  42.38°N, 76.87°W
Report Text: KELM 211853Z 27013G19KT 10SM BKN045 OVC050 M02/M11 A3035 RMK AO2 SLP290 T10171106
Loading
Personal Weather Stations






























Interactive Weather Map New forecast layout! Learn more

10-Day Weather Forecast

Advertisements
Track Severe Weather on mobile